sensor_id;sensor_type;location;lat;lon;timestamp;P1;durP1;ratioP1;P2;durP2;ratioP2
20699;SDS011;10511;51.232;9.420;2022-09-01T00:01:26;0.70;;;0.70;;
20699;SDS011;10511;51.232;9.420;2022-09-01T00:03:55;0.70;;;0.70;;
20699;SDS011;10511;51.232;9.420;2022-09-01T00:06:27;0.77;;;0.77;;
20699;SDS011;10511;51.232;9.420;2022-09-01T00:08:55;0.80;;;0.80;;
20699;SDS011;10511;51.232;9.420;2022-09-01T00:11:26;0.73;;;0.73;;
20699;SDS011;10511;51.232;9.420;2022-09-01T00:13:54;0.70;;;0.70;;
20699;SDS011;10511;51.232;9.420;2022-09-01T00:16:21;0.60;;;0.60;;
20699;SDS011;10511;51.232;9.420;2022-09-01T00:18:51;0.70;;;0.70;;
20699;SDS011;10511;51.232;9.420;2022-09-01T00:21:19;0.80;;;0.80;;
20699;SDS011;10511;51.232;9.420;2022-09-01T00:23:49;0.70;;;0.70;;
20699;SDS011;10511;51.232;9.420;2022-09-01T00:26:16;0.70;;;0.70;;
20699;SDS011;10511;51.232;9.420;2022-09-01T00:28:43;0.67;;;0.67;;
20699;SDS011;10511;51.232;9.420;2022-09-01T00:31:10;0.70;;;0.70;;
20699;SDS011;10511;51.232;9.420;2022-09-01T00:33:38;0.70;;;0.70;;
20699;SDS011;10511;51.232;9.420;2022-09-01T00:36:07;0.70;;;0.70;;
20699;SDS011;10511;51.232;9.420;2022-09-01T00:38:34;0.70;;;0.70;;
20699;SDS011;10511;51.232;9.420;2022-09-01T00:41:01;0.70;;;0.70;;
20699;SDS011;10511;51.232;9.420;2022-09-01T00:43:35;0.80;;;0.80;;
20699;SDS011;10511;51.232;9.420;2022-09-01T00:46:05;0.70;;;0.70;;
20699;SDS011;10511;51.232;9.420;2022-09-01T00:48:34;0.70;;;0.70;;
20699;SDS011;10511;51.232;9.420;2022-09-01T00:51:01;0.70;;;0.70;;
20699;SDS011;10511;51.232;9.420;2022-09-01T00:53:30;0.70;;;0.70;;
20699;SDS011;10511;51.232;9.420;2022-09-01T00:55:58;0.70;;;0.70;;
20699;SDS011;10511;51.232;9.420;2022-09-01T00:58:25;0.70;;;0.70;;
20699;SDS011;10511;51.232;9.420;2022-09-01T01:00:53;0.70;;;0.70;;
20699;SDS011;10511;51.232;9.420;2022-09-01T01:03:21;0.70;;;0.70;;
20699;SDS011;10511;51.232;9.420;2022-09-01T01:05:50;0.70;;;0.70;;
20699;SDS011;10511;51.232;9.420;2022-09-01T01:08:23;0.70;;;0.70;;
20699;SDS011;10511;51.232;9.420;2022-09-01T01:10:59;0.77;;;0.77;;
20699;SDS011;10511;51.232;9.420;2022-09-01T01:13:27;0.70;;;0.70;;
20699;SDS011;10511;51.232;9.420;2022-09-01T01:15:56;0.70;;;0.70;;
20699;SDS011;10511;51.232;9.420;2022-09-01T01:18:24;0.90;;;0.90;;
20699;SDS011;10511;51.232;9.420;2022-09-01T01:20:55;0.80;;;0.80;;
20699;SDS011;10511;51.232;9.420;2022-09-01T01:23:43;0.73;;;0.73;;
20699;SDS011;10511;51.232;9.420;2022-09-01T01:26:17;0.77;;;0.77;;
20699;SDS011;10511;51.232;9.420;2022-09-01T01:28:44;0.70;;;0.70;;
20699;SDS011;10511;51.232;9.420;2022-09-01T01:31:13;0.70;;;0.70;;
20699;SDS011;10511;51.232;9.420;2022-09-01T01:33:43;0.70;;;0.70;;
20699;SDS011;10511;51.232;9.420;2022-09-01T01:36:12;0.80;;;0.80;;
20699;SDS011;10511;51.232;9.420;2022-09-01T01:38:41;0.70;;;0.70;;
20699;SDS011;10511;51.232;9.420;2022-09-01T01:41:11;0.70;;;0.70;;
20699;SDS011;10511;51.232;9.420;2022-09-01T01:43:41;0.80;;;0.80;;
20699;SDS011;10511;51.232;9.420;2022-09-01T01:46:09;0.70;;;0.70;;
20699;SDS011;10511;51.232;9.420;2022-09-01T01:48:39;0.70;;;0.70;;
20699;SDS011;10511;51.232;9.420;2022-09-01T01:51:08;0.70;;;0.70;;
20699;SDS011;10511;51.232;9.420;2022-09-01T01:53:36;0.70;;;0.70;;
20699;SDS011;10511;51.232;9.420;2022-09-01T01:56:04;0.70;;;0.70;;
20699;SDS011;10511;51.232;9.420;2022-09-01T01:58:33;0.70;;;0.70;;
20699;SDS011;10511;51.232;9.420;2022-09-01T02:01:01;0.70;;;0.70;;
20699;SDS011;10511;51.232;9.420;2022-09-01T02:03:30;0.70;;;0.70;;
20699;SDS011;10511;51.232;9.420;2022-09-01T02:06:02;0.70;;;0.70;;
20699;SDS011;10511;51.232;9.420;2022-09-01T02:08:31;0.73;;;0.73;;
20699;SDS011;10511;51.232;9.420;2022-09-01T02:11:00;0.80;;;0.80;;
20699;SDS011;10511;51.232;9.420;2022-09-01T02:13:28;0.70;;;0.70;;
20699;SDS011;10511;51.232;9.420;2022-09-01T02:15:56;0.70;;;0.70;;
20699;SDS011;10511;51.232;9.420;2022-09-01T02:18:26;0.70;;;0.70;;
20699;SDS011;10511;51.232;9.420;2022-09-01T02:20:58;0.80;;;0.80;;
20699;SDS011;10511;51.232;9.420;2022-09-01T02:23:25;0.70;;;0.70;;
20699;SDS011;10511;51.232;9.420;2022-09-01T02:25:54;0.70;;;0.70;;
20699;SDS011;10511;51.232;9.420;2022-09-01T02:28:24;0.70;;;0.70;;
20699;SDS011;10511;51.232;9.420;2022-09-01T02:30:52;0.77;;;0.77;;
20699;SDS011;10511;51.232;9.420;2022-09-01T02:33:22;0.70;;;0.70;;
20699;SDS011;10511;51.232;9.420;2022-09-01T02:35:51;0.70;;;0.70;;
20699;SDS011;10511;51.232;9.420;2022-09-01T02:38:20;0.80;;;0.80;;
20699;SDS011;10511;51.232;9.420;2022-09-01T02:40:50;0.90;;;0.90;;
20699;SDS011;10511;51.232;9.420;2022-09-01T02:43:19;0.80;;;0.80;;
20699;SDS011;10511;51.232;9.420;2022-09-01T02:45:46;0.70;;;0.70;;
20699;SDS011;10511;51.232;9.420;2022-09-01T02:48:18;0.70;;;0.70;;
20699;SDS011;10511;51.232;9.420;2022-09-01T02:50:48;0.70;;;0.70;;
20699;SDS011;10511;51.232;9.420;2022-09-01T02:53:16;0.87;;;0.87;;
20699;SDS011;10511;51.232;9.420;2022-09-01T02:55:45;0.70;;;0.70;;
20699;SDS011;10511;51.232;9.420;2022-09-01T02:58:12;0.80;;;0.80;;
20699;SDS011;10511;51.232;9.420;2022-09-01T03:00:44;0.70;;;0.70;;
20699;SDS011;10511;51.232;9.420;2022-09-01T03:03:11;0.80;;;0.80;;
20699;SDS011;10511;51.232;9.420;2022-09-01T03:05:41;0.70;;;0.70;;
20699;SDS011;10511;51.232;9.420;2022-09-01T03:08:09;0.70;;;0.70;;
20699;SDS011;10511;51.232;9.420;2022-09-01T03:10:41;0.80;;;0.80;;
20699;SDS011;10511;51.232;9.420;2022-09-01T03:13:11;0.70;;;0.70;;
20699;SDS011;10511;51.232;9.420;2022-09-01T03:15:40;0.70;;;0.70;;
20699;SDS011;10511;51.232;9.420;2022-09-01T03:18:08;0.70;;;0.70;;
20699;SDS011;10511;51.232;9.420;2022-09-01T03:20:38;0.70;;;0.70;;
20699;SDS011;10511;51.232;9.420;2022-09-01T03:23:07;0.60;;;0.60;;
20699;SDS011;10511;51.232;9.420;2022-09-01T03:25:37;0.70;;;0.70;;
20699;SDS011;10511;51.232;9.420;2022-09-01T03:28:05;0.70;;;0.70;;
20699;SDS011;10511;51.232;9.420;2022-09-01T03:30:34;0.70;;;0.70;;
20699;SDS011;10511;51.232;9.420;2022-09-01T03:33:04;0.70;;;0.70;;
20699;SDS011;10511;51.232;9.420;2022-09-01T03:35:32;0.60;;;0.60;;
20699;SDS011;10511;51.232;9.420;2022-09-01T03:38:00;0.80;;;0.80;;
20699;SDS011;10511;51.232;9.420;2022-09-01T03:40:29;0.80;;;0.80;;
20699;SDS011;10511;51.232;9.420;2022-09-01T03:42:58;0.80;;;0.80;;
20699;SDS011;10511;51.232;9.420;2022-09-01T03:45:27;0.70;;;0.70;;
20699;SDS011;10511;51.232;9.420;2022-09-01T03:47:59;0.70;;;0.70;;
20699;SDS011;10511;51.232;9.420;2022-09-01T03:50:30;0.80;;;0.80;;
20699;SDS011;10511;51.232;9.420;2022-09-01T03:52:58;0.80;;;0.80;;
20699;SDS011;10511;51.232;9.420;2022-09-01T03:55:26;0.70;;;0.70;;
20699;SDS011;10511;51.232;9.420;2022-09-01T03:57:56;0.80;;;0.80;;
20699;SDS011;10511;51.232;9.420;2022-09-01T04:00:28;0.80;;;0.80;;
20699;SDS011;10511;51.232;9.420;2022-09-01T04:02:57;0.77;;;0.77;;
20699;SDS011;10511;51.232;9.420;2022-09-01T04:05:24;0.70;;;0.70;;
20699;SDS011;10511;51.232;9.420;2022-09-01T04:07:54;0.70;;;0.70;;
20699;SDS011;10511;51.232;9.420;2022-09-01T04:10:21;0.80;;;0.80;;
20699;SDS011;10511;51.232;9.420;2022-09-01T04:12:49;0.70;;;0.70;;
20699;SDS011;10511;51.232;9.420;2022-09-01T04:15:16;0.70;;;0.70;;
20699;SDS011;10511;51.232;9.420;2022-09-01T04:17:45;0.70;;;0.70;;
20699;SDS011;10511;51.232;9.420;2022-09-01T04:20:34;0.70;;;0.70;;
20699;SDS011;10511;51.232;9.420;2022-09-01T04:23:12;0.70;;;0.70;;
20699;SDS011;10511;51.232;9.420;2022-09-01T04:25:45;0.80;;;0.80;;
20699;SDS011;10511;51.232;9.420;2022-09-01T04:28:14;0.70;;;0.70;;
20699;SDS011;10511;51.232;9.420;2022-09-01T04:30:47;0.70;;;0.70;;
20699;SDS011;10511;51.232;9.420;2022-09-01T04:33:17;0.70;;;0.70;;
20699;SDS011;10511;51.232;9.420;2022-09-01T04:35:43;0.80;;;0.80;;
20699;SDS011;10511;51.232;9.420;2022-09-01T04:38:10;0.80;;;0.80;;
20699;SDS011;10511;51.232;9.420;2022-09-01T04:40:40;0.70;;;0.70;;
20699;SDS011;10511;51.232;9.420;2022-09-01T04:43:07;0.70;;;0.70;;
20699;SDS011;10511;51.232;9.420;2022-09-01T04:45:34;0.70;;;0.70;;
20699;SDS011;10511;51.232;9.420;2022-09-01T04:48:02;0.70;;;0.70;;
20699;SDS011;10511;51.232;9.420;2022-09-01T04:50:31;0.70;;;0.70;;
20699;SDS011;10511;51.232;9.420;2022-09-01T04:53:02;0.83;;;0.83;;
20699;SDS011;10511;51.232;9.420;2022-09-01T04:55:31;0.80;;;0.80;;
20699;SDS011;10511;51.232;9.420;2022-09-01T04:57:58;0.70;;;0.70;;
20699;SDS011;10511;51.232;9.420;2022-09-01T05:00:27;0.80;;;0.80;;
20699;SDS011;10511;51.232;9.420;2022-09-01T05:02:57;0.77;;;0.77;;
20699;SDS011;10511;51.232;9.420;2022-09-01T05:05:34;0.70;;;0.70;;
20699;SDS011;10511;51.232;9.420;2022-09-01T05:08:07;0.80;;;0.80;;
20699;SDS011;10511;51.232;9.420;2022-09-01T05:10:39;0.80;;;0.80;;
20699;SDS011;10511;51.232;9.420;2022-09-01T05:13:07;0.70;;;0.70;;
20699;SDS011;10511;51.232;9.420;2022-09-01T05:15:37;0.70;;;0.70;;
20699;SDS011;10511;51.232;9.420;2022-09-01T05:18:10;0.80;;;0.80;;
20699;SDS011;10511;51.232;9.420;2022-09-01T05:20:40;0.70;;;0.70;;
20699;SDS011;10511;51.232;9.420;2022-09-01T05:23:08;0.80;;;0.80;;
20699;SDS011;10511;51.232;9.420;2022-09-01T05:25:41;0.70;;;0.70;;
20699;SDS011;10511;51.232;9.420;2022-09-01T05:28:09;0.73;;;0.73;;
20699;SDS011;10511;51.232;9.420;2022-09-01T05:30:38;0.70;;;0.70;;
20699;SDS011;10511;51.232;9.420;2022-09-01T05:33:06;0.70;;;0.70;;
20699;SDS011;10511;51.232;9.420;2022-09-01T05:35:37;0.70;;;0.70;;
20699;SDS011;10511;51.232;9.420;2022-09-01T05:38:09;0.77;;;0.77;;
20699;SDS011;10511;51.232;9.420;2022-09-01T05:40:40;0.80;;;0.80;;
20699;SDS011;10511;51.232;9.420;2022-09-01T05:43:08;0.70;;;0.70;;
20699;SDS011;10511;51.232;9.420;2022-09-01T05:45:37;0.70;;;0.70;;
20699;SDS011;10511;51.232;9.420;2022-09-01T05:48:08;0.70;;;0.70;;
20699;SDS011;10511;51.232;9.420;2022-09-01T05:50:38;0.90;;;0.90;;
20699;SDS011;10511;51.232;9.420;2022-09-01T05:53:07;0.70;;;0.70;;
20699;SDS011;10511;51.232;9.420;2022-09-01T05:55:41;0.70;;;0.70;;
20699;SDS011;10511;51.232;9.420;2022-09-01T05:58:09;0.70;;;0.70;;
20699;SDS011;10511;51.232;9.420;2022-09-01T06:00:38;0.70;;;0.70;;
20699;SDS011;10511;51.232;9.420;2022-09-01T06:03:06;0.70;;;0.70;;
20699;SDS011;10511;51.232;9.420;2022-09-01T06:05:34;0.77;;;0.77;;
20699;SDS011;10511;51.232;9.420;2022-09-01T06:08:02;0.80;;;0.80;;
20699;SDS011;10511;51.232;9.420;2022-09-01T06:10:32;0.80;;;0.80;;
20699;SDS011;10511;51.232;9.420;2022-09-01T06:13:04;0.70;;;0.70;;
20699;SDS011;10511;51.232;9.420;2022-09-01T06:15:31;0.70;;;0.70;;
20699;SDS011;10511;51.232;9.420;2022-09-01T06:17:58;0.80;;;0.80;;
20699;SDS011;10511;51.232;9.420;2022-09-01T06:20:25;0.70;;;0.70;;
20699;SDS011;10511;51.232;9.420;2022-09-01T06:22:54;0.70;;;0.70;;
20699;SDS011;10511;51.232;9.420;2022-09-01T06:25:21;0.70;;;0.70;;
20699;SDS011;10511;51.232;9.420;2022-09-01T06:27:49;0.70;;;0.70;;
20699;SDS011;10511;51.232;9.420;2022-09-01T06:30:16;0.70;;;0.70;;
20699;SDS011;10511;51.232;9.420;2022-09-01T06:32:44;0.63;;;0.63;;
20699;SDS011;10511;51.232;9.420;2022-09-01T06:35:14;0.70;;;0.70;;
20699;SDS011;10511;51.232;9.420;2022-09-01T06:37:42;0.70;;;0.70;;
20699;SDS011;10511;51.232;9.420;2022-09-01T06:40:10;0.70;;;0.70;;
20699;SDS011;10511;51.232;9.420;2022-09-01T06:42:41;0.70;;;0.70;;
20699;SDS011;10511;51.232;9.420;2022-09-01T06:45:12;0.70;;;0.70;;
20699;SDS011;10511;51.232;9.420;2022-09-01T06:47:40;0.70;;;0.70;;
20699;SDS011;10511;51.232;9.420;2022-09-01T06:50:11;0.70;;;0.70;;
20699;SDS011;10511;51.232;9.420;2022-09-01T06:52:39;0.70;;;0.70;;
20699;SDS011;10511;51.232;9.420;2022-09-01T06:55:07;0.70;;;0.70;;
20699;SDS011;10511;51.232;9.420;2022-09-01T06:57:35;0.70;;;0.70;;
20699;SDS011;10511;51.232;9.420;2022-09-01T07:00:03;0.70;;;0.70;;
20699;SDS011;10511;51.232;9.420;2022-09-01T07:02:41;0.73;;;0.73;;
20699;SDS011;10511;51.232;9.420;2022-09-01T07:05:08;0.70;;;0.70;;
20699;SDS011;10511;51.232;9.420;2022-09-01T07:07:35;0.60;;;0.60;;
20699;SDS011;10511;51.232;9.420;2022-09-01T07:10:02;0.70;;;0.70;;
20699;SDS011;10511;51.232;9.420;2022-09-01T07:12:30;0.60;;;0.60;;
20699;SDS011;10511;51.232;9.420;2022-09-01T07:14:57;0.63;;;0.63;;
20699;SDS011;10511;51.232;9.420;2022-09-01T07:17:24;0.70;;;0.70;;
20699;SDS011;10511;51.232;9.420;2022-09-01T07:19:55;0.70;;;0.70;;
20699;SDS011;10511;51.232;9.420;2022-09-01T07:22:22;0.70;;;0.70;;
20699;SDS011;10511;51.232;9.420;2022-09-01T07:24:49;0.70;;;0.70;;
20699;SDS011;10511;51.232;9.420;2022-09-01T07:27:22;0.70;;;0.70;;
20699;SDS011;10511;51.232;9.420;2022-09-01T07:29:52;0.70;;;0.70;;
20699;SDS011;10511;51.232;9.420;2022-09-01T07:32:20;0.60;;;0.60;;
20699;SDS011;10511;51.232;9.420;2022-09-01T07:34:47;0.60;;;0.60;;
20699;SDS011;10511;51.232;9.420;2022-09-01T07:37:15;0.60;;;0.60;;
20699;SDS011;10511;51.232;9.420;2022-09-01T07:39:47;0.70;;;0.70;;
20699;SDS011;10511;51.232;9.420;2022-09-01T07:42:15;0.70;;;0.70;;
20699;SDS011;10511;51.232;9.420;2022-09-01T07:44:42;0.70;;;0.70;;
20699;SDS011;10511;51.232;9.420;2022-09-01T07:47:10;0.60;;;0.60;;
20699;SDS011;10511;51.232;9.420;2022-09-01T07:49:39;0.70;;;0.70;;
20699;SDS011;10511;51.232;9.420;2022-09-01T07:52:06;0.67;;;0.67;;
20699;SDS011;10511;51.232;9.420;2022-09-01T07:54:35;0.70;;;0.70;;
20699;SDS011;10511;51.232;9.420;2022-09-01T07:57:02;0.60;;;0.60;;
20699;SDS011;10511;51.232;9.420;2022-09-01T07:59:29;0.60;;;0.60;;
20699;SDS011;10511;51.232;9.420;2022-09-01T08:01:58;0.60;;;0.60;;
20699;SDS011;10511;51.232;9.420;2022-09-01T08:04:29;0.70;;;0.70;;
20699;SDS011;10511;51.232;9.420;2022-09-01T08:06:58;0.60;;;0.60;;
20699;SDS011;10511;51.232;9.420;2022-09-01T08:09:25;0.60;;;0.60;;
20699;SDS011;10511;51.232;9.420;2022-09-01T08:11:53;0.70;;;0.70;;
20699;SDS011;10511;51.232;9.420;2022-09-01T08:14:20;0.63;;;0.63;;
20699;SDS011;10511;51.232;9.420;2022-09-01T08:16:47;0.70;;;0.70;;
20699;SDS011;10511;51.232;9.420;2022-09-01T08:19:14;0.60;;;0.60;;
20699;SDS011;10511;51.232;9.420;2022-09-01T08:21:42;0.60;;;0.60;;
20699;SDS011;10511;51.232;9.420;2022-09-01T08:24:09;0.60;;;0.60;;
20699;SDS011;10511;51.232;9.420;2022-09-01T08:26:35;0.60;;;0.60;;
20699;SDS011;10511;51.232;9.420;2022-09-01T08:29:04;0.60;;;0.60;;
20699;SDS011;10511;51.232;9.420;2022-09-01T08:31:31;0.60;;;0.60;;
20699;SDS011;10511;51.232;9.420;2022-09-01T08:34:00;0.60;;;0.60;;
20699;SDS011;10511;51.232;9.420;2022-09-01T08:36:29;0.60;;;0.60;;
20699;SDS011;10511;51.232;9.420;2022-09-01T08:38:56;0.60;;;0.60;;
20699;SDS011;10511;51.232;9.420;2022-09-01T08:41:26;0.60;;;0.60;;
20699;SDS011;10511;51.232;9.420;2022-09-01T08:44:08;0.60;;;0.60;;
20699;SDS011;10511;51.232;9.420;2022-09-01T08:46:42;0.60;;;0.60;;
20699;SDS011;10511;51.232;9.420;2022-09-01T08:49:11;0.60;;;0.60;;
20699;SDS011;10511;51.232;9.420;2022-09-01T08:51:42;0.60;;;0.60;;
20699;SDS011;10511;51.232;9.420;2022-09-01T08:54:15;0.70;;;0.70;;
20699;SDS011;10511;51.232;9.420;2022-09-01T08:56:47;0.63;;;0.63;;
20699;SDS011;10511;51.232;9.420;2022-09-01T08:59:19;0.60;;;0.60;;
20699;SDS011;10511;51.232;9.420;2022-09-01T09:01:48;0.60;;;0.60;;
20699;SDS011;10511;51.232;9.420;2022-09-01T09:04:31;0.60;;;0.60;;
20699;SDS011;10511;51.232;9.420;2022-09-01T09:07:11;0.50;;;0.50;;
20699;SDS011;10511;51.232;9.420;2022-09-01T09:09:49;0.70;;;0.70;;
20699;SDS011;10511;51.232;9.420;2022-09-01T09:12:29;0.77;;;0.77;;
20699;SDS011;10511;51.232;9.420;2022-09-01T09:15:08;0.60;;;0.60;;
20699;SDS011;10511;51.232;9.420;2022-09-01T09:17:43;0.60;;;0.60;;
20699;SDS011;10511;51.232;9.420;2022-09-01T09:20:14;0.60;;;0.60;;
20699;SDS011;10511;51.232;9.420;2022-09-01T09:22:42;0.60;;;0.60;;
20699;SDS011;10511;51.232;9.420;2022-09-01T09:25:13;0.60;;;0.60;;
20699;SDS011;10511;51.232;9.420;2022-09-01T09:27:42;0.60;;;0.60;;
20699;SDS011;10511;51.232;9.420;2022-09-01T09:30:12;0.60;;;0.60;;
20699;SDS011;10511;51.232;9.420;2022-09-01T09:32:41;0.60;;;0.60;;
20699;SDS011;10511;51.232;9.420;2022-09-01T09:35:18;0.50;;;0.50;;
20699;SDS011;10511;51.232;9.420;2022-09-01T09:37:51;0.60;;;0.60;;
20699;SDS011;10511;51.232;9.420;2022-09-01T09:40:19;0.57;;;0.57;;
20699;SDS011;10511;51.232;9.420;2022-09-01T09:43:04;0.60;;;0.60;;
20699;SDS011;10511;51.232;9.420;2022-09-01T09:45:34;0.60;;;0.60;;
20699;SDS011;10511;51.232;9.420;2022-09-01T09:48:04;0.60;;;0.60;;
20699;SDS011;10511;51.232;9.420;2022-09-01T09:50:33;0.57;;;0.57;;
20699;SDS011;10511;51.232;9.420;2022-09-01T09:53:09;0.60;;;0.60;;
20699;SDS011;10511;51.232;9.420;2022-09-01T09:55:49;0.60;;;0.60;;
20699;SDS011;10511;51.232;9.420;2022-09-01T09:58:20;0.60;;;0.60;;
20699;SDS011;10511;51.232;9.420;2022-09-01T10:01:06;0.60;;;0.60;;
20699;SDS011;10511;51.232;9.420;2022-09-01T10:03:40;0.67;;;0.67;;
20699;SDS011;10511;51.232;9.420;2022-09-01T10:06:11;0.70;;;0.70;;
20699;SDS011;10511;51.232;9.420;2022-09-01T10:08:42;0.60;;;0.60;;
20699;SDS011;10511;51.232;9.420;2022-09-01T10:11:11;0.50;;;0.50;;
20699;SDS011;10511;51.232;9.420;2022-09-01T10:13:51;0.60;;;0.60;;
20699;SDS011;10511;51.232;9.420;2022-09-01T10:16:23;0.60;;;0.60;;
20699;SDS011;10511;51.232;9.420;2022-09-01T10:18:54;0.60;;;0.60;;
20699;SDS011;10511;51.232;9.420;2022-09-01T10:21:25;0.60;;;0.60;;
20699;SDS011;10511;51.232;9.420;2022-09-01T10:23:55;0.60;;;0.60;;
20699;SDS011;10511;51.232;9.420;2022-09-01T10:26:24;0.60;;;0.60;;
20699;SDS011;10511;51.232;9.420;2022-09-01T10:28:55;0.70;;;0.70;;
20699;SDS011;10511;51.232;9.420;2022-09-01T10:31:27;0.60;;;0.60;;
20699;SDS011;10511;51.232;9.420;2022-09-01T10:33:55;0.60;;;0.60;;
20699;SDS011;10511;51.232;9.420;2022-09-01T10:36:22;0.60;;;0.60;;
20699;SDS011;10511;51.232;9.420;2022-09-01T10:38:49;0.60;;;0.60;;
20699;SDS011;10511;51.232;9.420;2022-09-01T10:44:21;0.70;;;0.70;;
20699;SDS011;10511;51.232;9.420;2022-09-01T10:46:52;0.70;;;0.70;;
20699;SDS011;10511;51.232;9.420;2022-09-01T10:49:55;0.60;;;0.60;;
20699;SDS011;10511;51.232;9.420;2022-09-01T10:55:18;0.60;;;0.60;;
20699;SDS011;10511;51.232;9.420;2022-09-01T10:57:48;0.60;;;0.60;;
20699;SDS011;10511;51.232;9.420;2022-09-01T11:03:47;0.60;;;0.60;;
20699;SDS011;10511;51.232;9.420;2022-09-01T11:09:16;0.53;;;0.53;;
20699;SDS011;10511;51.232;9.420;2022-09-01T11:11:46;0.53;;;0.53;;
20699;SDS011;10511;51.232;9.420;2022-09-01T11:14:20;0.53;;;0.53;;
20699;SDS011;10511;51.232;9.420;2022-09-01T11:19:43;0.60;;;0.60;;
20699;SDS011;10511;51.232;9.420;2022-09-01T11:22:22;0.60;;;0.60;;
20699;SDS011;10511;51.232;9.420;2022-09-01T11:25:05;0.60;;;0.60;;
20699;SDS011;10511;51.232;9.420;2022-09-01T11:27:55;0.50;;;0.50;;
20699;SDS011;10511;51.232;9.420;2022-09-01T11:30:41;0.50;;;0.50;;
20699;SDS011;10511;51.232;9.420;2022-09-01T11:36:17;0.50;;;0.50;;
20699;SDS011;10511;51.232;9.420;2022-09-01T11:38:55;0.60;;;0.60;;
20699;SDS011;10511;51.232;9.420;2022-09-01T11:41:29;0.50;;;0.50;;
20699;SDS011;10511;51.232;9.420;2022-09-01T11:44:00;0.50;;;0.50;;
20699;SDS011;10511;51.232;9.420;2022-09-01T11:46:35;0.50;;;0.50;;
20699;SDS011;10511;51.232;9.420;2022-09-01T11:49:22;0.60;;;0.60;;
20699;SDS011;10511;51.232;9.420;2022-09-01T11:51:54;0.50;;;0.50;;
20699;SDS011;10511;51.232;9.420;2022-09-01T11:54:23;0.60;;;0.60;;
20699;SDS011;10511;51.232;9.420;2022-09-01T11:56:50;0.50;;;0.50;;
20699;SDS011;10511;51.232;9.420;2022-09-01T11:59:30;0.50;;;0.50;;
20699;SDS011;10511;51.232;9.420;2022-09-01T12:01:58;0.50;;;0.50;;
20699;SDS011;10511;51.232;9.420;2022-09-01T12:04:29;0.50;;;0.50;;
20699;SDS011;10511;51.232;9.420;2022-09-01T12:07:01;0.60;;;0.60;;
20699;SDS011;10511;51.232;9.420;2022-09-01T12:09:34;0.50;;;0.50;;
20699;SDS011;10511;51.232;9.420;2022-09-01T12:12:04;0.50;;;0.50;;
20699;SDS011;10511;51.232;9.420;2022-09-01T12:14:33;0.50;;;0.50;;
20699;SDS011;10511;51.232;9.420;2022-09-01T12:17:01;0.50;;;0.50;;
20699;SDS011;10511;51.232;9.420;2022-09-01T12:19:31;0.50;;;0.50;;
20699;SDS011;10511;51.232;9.420;2022-09-01T12:22:05;0.60;;;0.60;;
20699;SDS011;10511;51.232;9.420;2022-09-01T12:24:42;0.60;;;0.60;;
20699;SDS011;10511;51.232;9.420;2022-09-01T12:27:10;0.50;;;0.50;;
20699;SDS011;10511;51.232;9.420;2022-09-01T12:29:38;0.50;;;0.50;;
20699;SDS011;10511;51.232;9.420;2022-09-01T12:32:06;0.50;;;0.50;;
20699;SDS011;10511;51.232;9.420;2022-09-01T12:34:38;0.50;;;0.50;;
20699;SDS011;10511;51.232;9.420;2022-09-01T12:37:09;0.50;;;0.50;;
20699;SDS011;10511;51.232;9.420;2022-09-01T12:39:38;0.50;;;0.50;;
20699;SDS011;10511;51.232;9.420;2022-09-01T12:42:08;0.47;;;0.47;;
20699;SDS011;10511;51.232;9.420;2022-09-01T12:44:45;0.50;;;0.50;;
20699;SDS011;10511;51.232;9.420;2022-09-01T12:53:03;0.60;;;0.60;;
20699;SDS011;10511;51.232;9.420;2022-09-01T12:55:41;0.60;;;0.60;;
20699;SDS011;10511;51.232;9.420;2022-09-01T12:58:45;0.50;;;0.50;;
20699;SDS011;10511;51.232;9.420;2022-09-01T13:01:26;0.50;;;0.50;;
20699;SDS011;10511;51.232;9.420;2022-09-01T13:04:09;0.50;;;0.50;;
20699;SDS011;10511;51.232;9.420;2022-09-01T13:06:53;0.50;;;0.50;;
20699;SDS011;10511;51.232;9.420;2022-09-01T13:09:22;0.50;;;0.50;;
20699;SDS011;10511;51.232;9.420;2022-09-01T13:11:49;0.50;;;0.50;;
20699;SDS011;10511;51.232;9.420;2022-09-01T13:14:16;0.70;;;0.70;;
20699;SDS011;10511;51.232;9.420;2022-09-01T13:16:44;0.50;;;0.50;;
20699;SDS011;10511;51.232;9.420;2022-09-01T13:19:11;0.50;;;0.50;;
20699;SDS011;10511;51.232;9.420;2022-09-01T13:21:38;0.57;;;0.57;;
20699;SDS011;10511;51.232;9.420;2022-09-01T13:24:05;0.60;;;0.60;;
20699;SDS011;10511;51.232;9.420;2022-09-01T13:26:34;0.63;;;0.63;;
20699;SDS011;10511;51.232;9.420;2022-09-01T13:29:01;0.60;;;0.60;;
20699;SDS011;10511;51.232;9.420;2022-09-01T13:31:28;0.60;;;0.60;;
20699;SDS011;10511;51.232;9.420;2022-09-01T13:33:56;0.60;;;0.60;;
20699;SDS011;10511;51.232;9.420;2022-09-01T13:36:23;0.50;;;0.50;;
20699;SDS011;10511;51.232;9.420;2022-09-01T13:38:50;0.60;;;0.60;;
20699;SDS011;10511;51.232;9.420;2022-09-01T13:41:17;0.60;;;0.60;;
20699;SDS011;10511;51.232;9.420;2022-09-01T13:43:45;0.50;;;0.50;;
20699;SDS011;10511;51.232;9.420;2022-09-01T13:46:12;0.60;;;0.60;;
20699;SDS011;10511;51.232;9.420;2022-09-01T13:48:39;0.60;;;0.60;;
20699;SDS011;10511;51.232;9.420;2022-09-01T13:51:06;0.60;;;0.60;;
20699;SDS011;10511;51.232;9.420;2022-09-01T13:53:34;0.60;;;0.60;;
20699;SDS011;10511;51.232;9.420;2022-09-01T13:56:01;0.60;;;0.60;;
20699;SDS011;10511;51.232;9.420;2022-09-01T13:58:28;0.50;;;0.50;;
20699;SDS011;10511;51.232;9.420;2022-09-01T14:00:57;0.50;;;0.50;;
20699;SDS011;10511;51.232;9.420;2022-09-01T14:03:24;0.60;;;0.60;;
20699;SDS011;10511;51.232;9.420;2022-09-01T14:05:51;0.60;;;0.60;;
20699;SDS011;10511;51.232;9.420;2022-09-01T14:08:18;0.60;;;0.60;;
20699;SDS011;10511;51.232;9.420;2022-09-01T14:10:47;0.60;;;0.60;;
20699;SDS011;10511;51.232;9.420;2022-09-01T14:13:16;0.60;;;0.60;;
20699;SDS011;10511;51.232;9.420;2022-09-01T14:15:45;0.60;;;0.60;;
20699;SDS011;10511;51.232;9.420;2022-09-01T14:18:14;0.50;;;0.50;;
20699;SDS011;10511;51.232;9.420;2022-09-01T14:20:44;0.60;;;0.60;;
20699;SDS011;10511;51.232;9.420;2022-09-01T14:23:13;0.60;;;0.60;;
20699;SDS011;10511;51.232;9.420;2022-09-01T14:25:41;0.50;;;0.50;;
20699;SDS011;10511;51.232;9.420;2022-09-01T14:28:09;0.60;;;0.60;;
20699;SDS011;10511;51.232;9.420;2022-09-01T14:30:38;0.50;;;0.50;;
20699;SDS011;10511;51.232;9.420;2022-09-01T14:33:07;0.60;;;0.60;;
20699;SDS011;10511;51.232;9.420;2022-09-01T14:35:37;0.53;;;0.53;;
20699;SDS011;10511;51.232;9.420;2022-09-01T14:38:05;0.50;;;0.50;;
20699;SDS011;10511;51.232;9.420;2022-09-01T14:40:33;0.50;;;0.50;;
20699;SDS011;10511;51.232;9.420;2022-09-01T14:43:02;0.60;;;0.60;;
20699;SDS011;10511;51.232;9.420;2022-09-01T14:45:30;0.70;;;0.70;;
20699;SDS011;10511;51.232;9.420;2022-09-01T14:47:58;0.60;;;0.60;;
20699;SDS011;10511;51.232;9.420;2022-09-01T14:50:26;0.60;;;0.60;;
20699;SDS011;10511;51.232;9.420;2022-09-01T14:52:57;0.50;;;0.50;;
20699;SDS011;10511;51.232;9.420;2022-09-01T14:55:26;0.50;;;0.50;;
20699;SDS011;10511;51.232;9.420;2022-09-01T14:57:54;0.60;;;0.60;;
20699;SDS011;10511;51.232;9.420;2022-09-01T15:00:22;0.60;;;0.60;;
20699;SDS011;10511;51.232;9.420;2022-09-01T15:02:50;0.50;;;0.50;;
20699;SDS011;10511;51.232;9.420;2022-09-01T15:05:18;0.50;;;0.50;;
20699;SDS011;10511;51.232;9.420;2022-09-01T15:07:45;0.50;;;0.50;;
20699;SDS011;10511;51.232;9.420;2022-09-01T15:10:14;0.50;;;0.50;;
20699;SDS011;10511;51.232;9.420;2022-09-01T15:12:45;0.50;;;0.50;;
20699;SDS011;10511;51.232;9.420;2022-09-01T15:15:13;0.50;;;0.50;;
20699;SDS011;10511;51.232;9.420;2022-09-01T15:17:41;0.50;;;0.50;;
20699;SDS011;10511;51.232;9.420;2022-09-01T15:20:08;0.50;;;0.50;;
20699;SDS011;10511;51.232;9.420;2022-09-01T15:22:52;0.50;;;0.50;;
20699;SDS011;10511;51.232;9.420;2022-09-01T15:25:22;0.50;;;0.50;;
20699;SDS011;10511;51.232;9.420;2022-09-01T15:27:49;0.50;;;0.50;;
20699;SDS011;10511;51.232;9.420;2022-09-01T15:30:16;0.50;;;0.50;;